createdAt,value
2016-11-02T00:00:48.063Z,98.4
2016-11-02T00:01:48.663Z,98.69
2016-11-02T00:02:49.268Z,99.16
2016-11-02T00:03:49.874Z,99.26
2016-11-02T00:04:50.474Z,98.79
2016-11-02T00:05:51.108Z,99.07
2016-11-02T00:06:51.715Z,98.79
2016-11-02T00:07:52.324Z,98.5
2016-11-02T00:08:52.943Z,98.97
2016-11-02T00:09:53.552Z,99.26
2016-11-02T00:10:54.153Z,99.16
2016-11-02T00:11:54.759Z,99.07
2016-11-02T00:12:55.369Z,98.97
2016-11-02T00:13:55.990Z,99.26
2016-11-02T00:14:56.631Z,98.97
2016-11-02T00:15:57.234Z,99.16
2016-11-02T00:16:57.852Z,98.97
2016-11-02T00:17:58.472Z,99.07
2016-11-02T00:18:59.075Z,99.35
2016-11-02T00:19:59.687Z,99.07
2016-11-02T00:21:00.298Z,99.26
2016-11-02T00:22:00.914Z,99.26
2016-11-02T00:23:01.524Z,98.69
2016-11-02T00:24:02.144Z,99.26
2016-11-02T00:25:02.763Z,98.5
2016-11-02T00:26:03.381Z,98.59
2016-11-02T00:27:03.988Z,99.07
2016-11-02T00:28:04.609Z,98.69
2016-11-02T00:29:05.237Z,99.16
2016-11-02T00:30:05.847Z,99.16
2016-11-02T00:31:06.459Z,99.16
2016-11-02T00:32:07.070Z,98.5
2016-11-02T00:33:07.669Z,98.31
2016-11-02T00:34:08.281Z,98.4
2016-11-02T00:35:08.884Z,98.4
2016-11-02T00:36:09.496Z,98.21
2016-11-02T00:37:10.102Z,98.4
2016-11-02T00:38:10.779Z,98.02
2016-11-02T00:39:11.393Z,98.02
2016-11-02T00:40:12.001Z,97.74
2016-11-02T00:41:12.601Z,98.02
2016-11-02T00:42:13.212Z,98.4
2016-11-02T00:43:13.817Z,98.21
2016-11-02T00:44:14.425Z,98.59
2016-11-02T00:45:15.033Z,98.31
2016-11-02T00:46:15.642Z,98.02
2016-11-02T00:47:16.249Z,98.21
2016-11-02T00:48:16.858Z,98.4
2016-11-02T00:49:17.465Z,97.74
2016-11-02T00:50:18.071Z,98.5
2016-11-02T00:51:18.680Z,98.4
2016-11-02T00:52:19.288Z,98.4
2016-11-02T00:53:19.895Z,98.4
2016-11-02T00:54:20.499Z,98.79
2016-11-02T00:55:21.100Z,98.79
2016-11-02T00:56:21.706Z,99.16
2016-11-02T00:57:22.311Z,98.4
2016-11-02T00:58:22.915Z,98.31
2016-11-02T00:59:23.522Z,98.79
2016-11-02T01:00:24.139Z,99.16
2016-11-02T01:01:24.758Z,98.97
2016-11-02T01:02:25.377Z,99.07
2016-11-02T01:03:25.978Z,99.07
2016-11-02T01:04:26.585Z,99.07
2016-11-02T01:05:27.201Z,99.07
2016-11-02T01:06:27.807Z,99.16
2016-11-02T01:07:28.424Z,98.79
2016-11-02T01:08:29.038Z,99.16
2016-11-02T01:09:29.647Z,99.35
2016-11-02T01:10:30.259Z,99.16
2016-11-02T01:11:30.868Z,99.16
2016-11-02T01:12:31.476Z,99.35
2016-11-02T01:13:32.091Z,99.35
2016-11-02T01:14:32.700Z,99.35
2016-11-02T01:15:33.311Z,99.73
2016-11-02T01:16:33.922Z,99.99
2016-11-02T01:17:34.515Z,99.44
2016-11-02T01:18:35.122Z,99.99
2016-11-02T01:19:35.732Z,99.44
2016-11-02T01:20:36.338Z,99.54
2016-11-02T01:21:36.944Z,99.35
2016-11-02T01:22:37.571Z,99.26
2016-11-02T01:23:38.198Z,99.35
2016-11-02T01:24:38.809Z,98.79
2016-11-02T01:25:39.422Z,98.88
2016-11-02T01:26:40.038Z,98.97
2016-11-02T01:27:40.648Z,99.16
2016-11-02T01:28:41.255Z,98.97
2016-11-02T01:29:41.885Z,98.79
2016-11-02T01:30:42.505Z,99.54
2016-11-02T01:31:43.110Z,99.54
2016-11-02T01:32:43.705Z,99.35
2016-11-02T01:33:44.307Z,98.79
2016-11-02T01:34:44.911Z,99.35
2016-11-02T01:35:45.514Z,99.26
2016-11-02T01:36:46.128Z,99.07
2016-11-02T01:37:46.730Z,99.44
2016-11-02T01:38:47.341Z,99.64
2016-11-02T01:39:47.951Z,99.07
2016-11-02T01:40:48.561Z,99.35
2016-11-02T01:41:49.164Z,99.64
2016-11-02T01:42:49.773Z,99.16
2016-11-02T01:43:50.376Z,99.73
2016-11-02T01:44:50.985Z,99.92
2016-11-02T01:45:51.589Z,99.92
2016-11-02T01:46:52.201Z,99.99
2016-11-02T01:47:52.800Z,99.99
2016-11-02T01:48:53.412Z,99.83
2016-11-02T01:49:54.016Z,99.73
2016-11-02T01:50:54.621Z,99.99
2016-11-02T01:51:55.231Z,99.99
2016-11-02T01:52:55.840Z,99.83
2016-11-02T01:53:56.447Z,99.92
2016-11-02T01:54:57.056Z,99.64
2016-11-02T01:55:57.663Z,99.99
2016-11-02T01:56:58.274Z,99.99
2016-11-02T01:57:58.871Z,99.99
2016-11-02T01:58:59.477Z,99.83
2016-11-02T02:00:00.098Z,99.83
2016-11-02T02:01:00.705Z,99.99
2016-11-02T02:02:01.317Z,99.99
2016-11-02T02:03:01.938Z,99.99
2016-11-02T02:04:02.547Z,99.99
2016-11-02T02:05:03.163Z,99.99
2016-11-02T02:06:03.766Z,99.99
2016-11-02T02:07:07.011Z,99.99
2016-11-02T02:08:07.625Z,99.99
2016-11-02T02:09:08.239Z,99.99
2016-11-02T02:10:08.848Z,99.99
2016-11-02T02:11:09.464Z,99.99
2016-11-02T02:12:10.072Z,99.99
2016-11-02T02:13:10.685Z,99.99
2016-11-02T02:14:11.291Z,99.99
2016-11-02T02:15:11.905Z,99.99
2016-11-02T02:16:12.507Z,99.99
2016-11-02T02:17:13.109Z,99.99
2016-11-02T02:18:13.715Z,99.99
2016-11-02T02:19:14.329Z,99.99
2016-11-02T02:20:14.932Z,99.99
2016-11-02T02:21:15.543Z,99.99
2016-11-02T02:22:16.146Z,99.99
2016-11-02T02:23:16.770Z,99.99
2016-11-02T02:24:17.388Z,99.99
2016-11-02T02:25:18.003Z,99.99
2016-11-02T02:26:18.610Z,99.99
2016-11-02T02:27:19.216Z,99.99
2016-11-02T02:28:19.826Z,99.99
2016-11-02T02:29:20.433Z,99.99
2016-11-02T02:30:21.035Z,99.99
2016-11-02T02:31:21.676Z,99.99
2016-11-02T02:32:22.297Z,99.99
2016-11-02T02:33:22.919Z,99.99
2016-11-02T02:34:23.536Z,99.99
2016-11-02T02:35:24.149Z,99.99
2016-11-02T02:36:24.761Z,99.99
2016-11-02T02:37:25.371Z,99.99
2016-11-02T02:38:25.978Z,99.99
2016-11-02T02:39:26.602Z,99.99
2016-11-02T02:40:27.220Z,99.99
2016-11-02T02:41:27.832Z,99.99
2016-11-02T02:42:28.438Z,99.99
2016-11-02T02:43:29.041Z,99.99
2016-11-02T02:44:29.649Z,99.99
2016-11-02T02:45:30.262Z,99.99
2016-11-02T02:46:30.883Z,99.99
2016-11-02T02:47:31.502Z,99.99
2016-11-02T02:48:32.116Z,99.99
2016-11-02T02:49:32.727Z,99.99
2016-11-02T02:50:33.336Z,99.99
2016-11-02T02:51:33.948Z,99.99
2016-11-02T02:52:34.552Z,99.99
2016-11-02T02:53:35.183Z,99.99
2016-11-02T02:54:35.796Z,99.99
2016-11-02T02:55:36.406Z,99.99
2016-11-02T02:56:37.027Z,99.99
2016-11-02T02:57:37.632Z,99.99
2016-11-02T02:58:38.240Z,99.99
2016-11-02T02:59:38.857Z,99.99
2016-11-02T03:00:39.467Z,99.99
2016-11-02T03:01:40.073Z,99.99
2016-11-02T03:02:40.685Z,99.99
2016-11-02T03:03:41.290Z,99.99
2016-11-02T03:04:41.897Z,99.99
2016-11-02T03:05:42.513Z,99.99
2016-11-02T03:06:43.118Z,99.99
2016-11-02T03:07:43.723Z,99.99
2016-11-02T03:08:44.333Z,99.99
2016-11-02T03:09:44.937Z,99.99
2016-11-02T03:10:45.543Z,99.99
2016-11-02T03:11:46.150Z,99.99
2016-11-02T03:12:46.757Z,99.99
2016-11-02T03:13:47.359Z,99.99
2016-11-02T03:14:47.958Z,99.99
2016-11-02T03:15:48.576Z,99.99
2016-11-02T03:16:49.187Z,99.99
2016-11-02T03:17:49.790Z,99.99
2016-11-02T03:18:50.405Z,99.99
2016-11-02T03:19:51.019Z,99.99
2016-11-02T03:20:51.620Z,99.99
2016-11-02T03:21:52.227Z,99.99
2016-11-02T03:22:52.842Z,99.99
2016-11-02T03:23:53.446Z,99.99
2016-11-02T03:24:54.054Z,99.99
2016-11-02T03:25:54.657Z,99.99
2016-11-02T03:26:55.262Z,99.99
2016-11-02T03:27:55.867Z,99.99
2016-11-02T03:28:56.470Z,99.99
2016-11-02T03:29:57.077Z,99.99
2016-11-02T03:30:57.685Z,99.99
2016-11-02T03:31:58.286Z,99.99
2016-11-02T03:32:58.904Z,99.99
2016-11-02T03:33:59.513Z,99.99
2016-11-02T03:35:00.124Z,99.99
2016-11-02T03:36:00.731Z,99.99
2016-11-02T03:37:01.334Z,99.99
2016-11-02T03:38:01.933Z,99.99
2016-11-02T03:39:02.540Z,99.99
2016-11-02T03:40:03.161Z,99.99
2016-11-02T03:41:03.770Z,99.99
2016-11-02T03:42:04.379Z,99.99
2016-11-02T03:43:04.985Z,99.99
2016-11-02T03:44:05.592Z,99.99
2016-11-02T03:45:06.201Z,99.99
2016-11-02T03:46:06.817Z,99.99
2016-11-02T03:47:07.427Z,99.99
2016-11-02T03:48:08.029Z,99.99
2016-11-02T03:49:08.637Z,99.99
2016-11-02T03:50:09.240Z,99.99
2016-11-02T03:51:09.850Z,99.99
2016-11-02T03:52:10.456Z,99.99
2016-11-02T03:53:11.063Z,99.99
2016-11-02T03:54:11.670Z,99.99
2016-11-02T03:55:12.278Z,99.99
2016-11-02T03:56:12.886Z,99.99
2016-11-02T03:57:13.495Z,99.99
2016-11-02T03:58:14.098Z,99.99
2016-11-02T03:59:14.717Z,99.99
2016-11-02T04:00:15.334Z,99.99
2016-11-02T04:01:15.954Z,99.99
2016-11-02T04:02:16.566Z,99.99
2016-11-02T04:03:17.167Z,99.99
2016-11-02T04:04:17.775Z,99.99
2016-11-02T04:05:18.392Z,99.99
2016-11-02T04:06:18.995Z,99.99
2016-11-02T04:07:19.603Z,99.99
2016-11-02T04:08:20.208Z,99.99
2016-11-02T04:09:20.820Z,99.99
2016-11-02T04:10:21.428Z,99.99
2016-11-02T04:11:22.040Z,99.99
2016-11-02T04:12:22.664Z,99.99
2016-11-02T04:13:23.276Z,99.99
2016-11-02T04:14:23.880Z,99.99
2016-11-02T04:15:24.484Z,99.99
2016-11-02T04:16:25.096Z,99.99
2016-11-02T04:17:25.707Z,99.99
2016-11-02T04:18:26.342Z,99.99
2016-11-02T04:19:26.951Z,99.99
2016-11-02T04:20:27.559Z,99.99
2016-11-02T04:21:28.162Z,99.99
2016-11-02T04:22:28.769Z,99.99
2016-11-02T04:23:29.373Z,99.99
2016-11-02T04:24:29.977Z,99.99
2016-11-02T04:25:30.578Z,99.99
2016-11-02T04:26:31.193Z,99.99
2016-11-02T04:27:31.799Z,99.99
2016-11-02T04:28:32.409Z,99.99
2016-11-02T04:29:33.012Z,99.99
2016-11-02T04:30:33.632Z,99.99
2016-11-02T04:31:34.234Z,99.99
2016-11-02T04:32:34.835Z,99.99
2016-11-02T04:33:35.449Z,99.99
2016-11-02T04:34:36.054Z,99.99
